Nearby METAR Reports

 

KSJC - San Jose, California, USA
Distance from station: NE 14km
Updated: 22/05/2024 12:53
Clear
Clear
 Wind from calm
Wind: Calm
Temperature: 14°C
Dew Point: 10°C
Humidity: 77%
Barometer: 1013.9 hPa
Clouds: Clear
Visibility: 14 km
2024/05/22 10:53 KSJC 221053Z AUTO 00000KT 9SM CLR 14/10 A2994 RMK AO2 SLP138 T01440100
KNUQ - Moffett Nas/Mtn, California, USA
Distance from station: N 14km
Updated: 22/05/2024 13:35
Haze, Clear
Haze, Clear
 Wind from calm
Wind: Calm
Temperature: 13°C
Dew Point: 10°C
Humidity: 82%
Barometer: 1013.9 hPa
Summary: Haze
Clouds: Clear
Visibility: 10 km
2024/05/22 11:35 KNUQ 221135Z AUTO 00000KT 6SM HZ CLR 13/10 A2994 RMK AO2
 
KPAO - Palo Alto, California, USA
Distance from station: NNW 23km
Updated: 22/05/2024 05:47
NOT Current
Clear
Clear
 Wind from NNW
Wind: NNW 22 km/h
Temperature: 16°C
Dew Point: 12°C
Humidity: 77%
Barometer: 1014.2 hPa
Clouds: Clear
Visibility: 16 km
2024/05/22 03:47 KPAO 220347Z 33012KT 10SM SKC 16/12 A2995 RMK LAST
KRHV - San Jose/Reid, California, USA
Distance from station: ENE 19km
Updated: 22/05/2024 06:47
NOT Current
Clear
Clear
 Wind from NNW
Wind: NNW 9 km/h
Temperature: 19°C
Dew Point: 4°C
Humidity: 37%
Barometer: 1014.6 hPa
Clouds: Clear
Visibility: 16 km
2024/05/22 04:47 KRHV 220447Z 33005KT 10SM SKC 19/04 A2996 RMK LAST
 
KOAK - Oakland, California, USA
Distance from station: NNW 50km
Updated: 22/05/2024 12:53
Partly cloudy
Partly cloudy
 Wind from SW
Wind: SW 9 km/h
Temperature: 12°C
Dew Point: 11°C
Humidity: 94%
Barometer: 1014.2 hPa
Clouds: Partly cloudy
Visibility: 16 km
Cloud details: Partly cloudy 396 m
2024/05/22 10:53 KOAK 221053Z 22005KT 10SM SCT013 12/11 A2995 RMK AO2 SLP140 T01220106
KSQL - San Carlos Airpo, California, USA
Distance from station: NW 34km
Updated: 22/05/2024 13:35
Clear
Clear
 Wind from calm
Wind: Calm
Temperature: 13°C
Dew Point: 7°C
Humidity: 67%
Barometer: 1014.2 hPa
Clouds: Clear
Visibility: 13 km
2024/05/22 11:35 KSQL 221135Z AUTO 00000KT 8SM CLR 13/07 A2995 RMK AO2
 
KSFO - San Francisco, California, USA
Distance from station: NW 49km
Updated: 22/05/2024 12:56
Few Clouds
Few Clouds
 Wind from WNW
Wind: WNW 9 km/h
Temperature: 12°C
Dew Point: 8°C
Humidity: 77%
Barometer: 1013.9 hPa
Clouds: Few Clouds
Visibility: 16 km
Cloud details: Few Clouds 244 m
2024/05/22 10:56 KSFO 221056Z 29005KT 10SM FEW008 12/08 A2994 RMK AO2 SLP138 T01220083 $
KE16 - San Martin, California, USA
Distance from station: ESE 43km
Updated: 22/05/2024 13:15
Mist, Overcast
Mist, Overcast
 Wind from SSE
Wind: SSE 7 km/h
Temperature: 10°C
Wind Chill: 9°C
Dew Point: 9°C
Humidity: 94%
Barometer: 1014.9 hPa
Summary: Mist
Clouds: Overcast
Visibility: 8 km
Cloud details: Overcast 152 m
2024/05/22 11:15 KE16 221115Z AUTO 16004KT 5SM BR OVC005 10/09 A2997 RMK AO2
 
KWVI - Watsonville, California, USA
Distance from station: SSE 44km
Updated: 22/05/2024 12:53
Mist, Overcast
Mist, Overcast
 Wind from calm
Wind: Calm
Temperature: 11°C
Dew Point: 11°C
Humidity: 100%
Barometer: 1014.9 hPa
Summary: Mist
Clouds: Overcast
Visibility: 8 km
Cloud details: Overcast 91 m
2024/05/22 10:53 KWVI 221053Z AUTO 00000KT 5SM BR OVC003 11/11 A2997 RMK AO2 SLP149 T01110111
KHAF - Half Moon Bay, California, USA
Distance from station: WNW 50km
Updated: 22/05/2024 13:35
Mist, Overcast
Mist, Overcast
 Wind from calm
Wind: Calm
Temperature: 11°C
Dew Point: 10°C
Humidity: 94%
Barometer: 1014.9 hPa
Summary: Mist
Clouds: Overcast
Visibility: 8 km
Cloud details: Overcast 366 m
2024/05/22 11:35 KHAF 221135Z AUTO 00000KT 5SM BR OVC012 11/10 A2997 RMK AO2
 
KHWD - Hayward, California, USA
Distance from station: N 44km
Updated: 22/05/2024 12:54
Clear
Clear
 Wind from calm
Wind: Calm
Temperature: 13°C
Dew Point: 9°C
Humidity: 77%
Barometer: 1013.9 hPa
Clouds: Clear
Visibility: 16 km
2024/05/22 10:54 KHWD 221054Z AUTO 00000KT 10SM CLR 13/09 A2994 RMK AO2 SLP147 T01330089
KLVK - Livermore, California, USA
Distance from station: NNE 51km
Updated: 22/05/2024 12:53
Clear
Clear
 Wind from calm
Wind: Calm
Temperature: 12°C
Dew Point: 8°C
Humidity: 77%
Barometer: 1013.2 hPa
Clouds: Clear
Visibility: 14 km
2024/05/22 10:53 KLVK 221053Z AUTO 00000KT 9SM CLR 12/08 A2992 RMK AO2 SLP127 T01220078